Havasu Lake, California
Current Conditions -  °F | °C
As of 3:56 PM on Thursday 18 Dec 2014 (Local Time) from KEED Reporting Station
Clear Clear  
Wind Chill: 61°   Ceiling: Unl
Heat Index: 61°   Visibility: 10mi
Dew Point: 39°   Wind: 6mph
Humidity: 44%   Direction: 340°NNW
Pressure: 30.13"   Gusts: NA
Location:  34.5025°N, 114.671°W
Report Text: KEED 182356Z AUTO 34005KT 10SM CLR 16/04 A3013 RMK AO2 SLP191 T01610039 10172 20133 55002
Loading
Personal Weather Stations






























Interactive Weather Map New forecast layout! Learn more

10-Day Weather Forecast

Advertisements
Track Severe Weather on mobile